createdAt,value
2022-09-20T00:01:32.407Z,92.30
2022-09-20T00:04:01.407Z,91.65
2022-09-20T00:06:31.255Z,91.27
2022-09-20T00:08:59.694Z,91.56
2022-09-20T00:11:28.738Z,92.49
2022-09-20T00:13:57.217Z,91.89
2022-09-20T00:16:32.962Z,93.23
2022-09-20T00:19:03.826Z,92.26
2022-09-20T00:21:32.144Z,92.89
2022-09-20T00:23:58.979Z,93.66
2022-09-20T00:26:27.522Z,92.46
2022-09-20T00:28:55.045Z,92.60
2022-09-20T00:31:21.908Z,93.39
2022-09-20T00:34:07.301Z,92.08
2022-09-20T00:36:33.937Z,91.70
2022-09-20T00:39:01.995Z,93.58
2022-09-20T00:41:30.135Z,92.31
2022-09-20T00:43:57.209Z,91.94
2022-09-20T00:46:35.265Z,92.71
2022-09-20T00:49:12.020Z,91.78
2022-09-20T00:51:41.300Z,94.39
2022-09-20T00:54:10.796Z,92.36
2022-09-20T00:56:41.562Z,92.32
2022-09-20T00:59:26.637Z,91.91
2022-09-20T01:02:03.125Z,92.60
2022-09-20T01:04:30.412Z,92.59
2022-09-20T01:07:00.789Z,90.75
2022-09-20T01:09:27.419Z,93.04
2022-09-20T01:11:56.825Z,93.30
2022-09-20T01:14:26.731Z,95.70
2022-09-20T01:16:56.540Z,93.40
2022-09-20T01:19:57.165Z,93.46
2022-09-20T01:22:49.071Z,92.17
2022-09-20T01:25:44.938Z,92.82
2022-09-20T01:28:11.573Z,96.22
2022-09-20T01:30:44.251Z,95.45
2022-09-20T01:33:28.698Z,95.76
2022-09-20T01:35:58.842Z,94.38
2022-09-20T01:38:28.232Z,94.32
2022-09-20T01:41:12.387Z,94.31
2022-09-20T01:44:07.048Z,96.95
2022-09-20T01:46:36.160Z,94.38
2022-09-20T01:49:20.511Z,94.24
2022-09-20T01:52:24.174Z,97.82
2022-09-20T01:55:11.962Z,94.93
2022-09-20T01:57:38.402Z,94.99
2022-09-20T02:00:13.124Z,94.84
2022-09-20T02:02:51.500Z,94.80
2022-09-20T02:05:18.069Z,94.84
2022-09-20T02:08:03.253Z,97.47
2022-09-20T02:10:35.933Z,93.25
2022-09-20T02:13:31.093Z,93.62
2022-09-20T02:16:22.549Z,94.78
2022-09-20T02:19:08.059Z,94.53
2022-09-20T02:22:11.626Z,97.72
2022-09-20T02:25:04.690Z,93.65
2022-09-20T02:27:50.019Z,98.30
2022-09-20T02:30:41.176Z,96.24
2022-09-20T02:33:51.036Z,97.79
2022-09-20T02:36:20.568Z,96.56
2022-09-20T02:39:15.755Z,97.76
2022-09-20T02:41:48.414Z,96.38
2022-09-20T02:44:46.470Z,94.72
2022-09-20T02:47:41.405Z,95.98
2022-09-20T02:50:23.146Z,93.37
2022-09-20T02:53:05.464Z,96.41
2022-09-20T02:55:32.048Z,96.03
2022-09-20T02:58:21.454Z,96.83
2022-09-20T03:01:17.525Z,96.71
2022-09-20T03:03:53.110Z,95.59
2022-09-20T03:06:19.628Z,96.31
2022-09-20T03:09:25.919Z,97.55
2022-09-20T03:12:29.618Z,99.27
2022-09-20T03:15:10.623Z,98.44
2022-09-20T03:18:00.759Z,95.96
2022-09-20T03:20:39.433Z,97.30
2022-09-20T03:23:37.060Z,97.49
2022-09-20T03:26:28.381Z,98.62
2022-09-20T03:29:21.046Z,95.56
2022-09-20T03:32:08.853Z,96.39
2022-09-20T03:34:59.738Z,98.59
2022-09-20T03:38:00.180Z,97.11
2022-09-20T03:40:33.950Z,95.85
2022-09-20T03:43:21.057Z,97.83
2022-09-20T03:46:04.134Z,98.43
2022-09-20T03:48:37.476Z,95.80
2022-09-20T03:51:13.090Z,96.98
2022-09-20T03:54:06.789Z,98.29
2022-09-20T03:56:52.164Z,97.48
2022-09-20T03:59:29.938Z,97.63
2022-09-20T04:02:11.804Z,96.54
2022-09-20T04:04:56.304Z,96.59
2022-09-20T04:07:37.770Z,95.64
2022-09-20T04:10:19.171Z,96.96
2022-09-20T04:13:03.211Z,99.36
2022-09-20T04:15:41.970Z,100.00
2022-09-20T04:18:37.667Z,99.56
2022-09-20T04:21:23.894Z,98.56
2022-09-20T04:23:56.187Z,98.65
2022-09-20T04:26:28.304Z,99.19
2022-09-20T04:28:54.751Z,98.99
2022-09-20T04:31:42.996Z,100.00
2022-09-20T04:34:52.596Z,100.00
2022-09-20T04:37:33.134Z,100.00
2022-09-20T04:40:31.902Z,100.00
2022-09-20T04:43:18.768Z,100.00
2022-09-20T04:46:30.111Z,97.79
2022-09-20T04:49:05.441Z,100.00
2022-09-20T04:51:54.429Z,99.51
2022-09-20T04:54:44.654Z,97.14
2022-09-20T04:57:45.906Z,99.50
2022-09-20T05:00:19.733Z,98.40
2022-09-20T05:03:08.112Z,97.11
2022-09-20T05:05:55.937Z,97.56
2022-09-20T05:08:44.020Z,96.29
2022-09-20T05:11:31.606Z,96.54
2022-09-20T05:14:17.126Z,96.88
2022-09-20T05:17:07.200Z,97.09
2022-09-20T05:19:55.897Z,97.62
2022-09-20T05:22:50.493Z,100.00
2022-09-20T05:25:59.178Z,100.00
2022-09-20T05:28:34.269Z,99.77
2022-09-20T05:31:15.632Z,97.92
2022-09-20T05:33:57.676Z,95.71
2022-09-20T05:36:48.289Z,96.96
2022-09-20T05:39:18.534Z,96.97
2022-09-20T05:41:57.085Z,98.08
2022-09-20T05:44:23.574Z,97.79
2022-09-20T05:47:06.498Z,98.47
2022-09-20T05:49:47.107Z,100.00
2022-09-20T05:52:58.718Z,100.00
2022-09-20T05:56:02.816Z,100.00
2022-09-20T05:58:42.517Z,99.75
2022-09-20T06:01:18.932Z,99.59
2022-09-20T06:03:54.613Z,99.31
2022-09-20T06:07:00.654Z,100.00
2022-09-20T06:09:56.781Z,100.00
2022-09-20T06:12:35.745Z,99.00
2022-09-20T06:15:15.181Z,100.00
2022-09-20T06:17:51.083Z,100.00
2022-09-20T06:20:52.110Z,100.00
2022-09-20T06:23:19.010Z,100.00
2022-09-20T06:25:54.078Z,100.00
2022-09-20T06:28:23.527Z,100.00
2022-09-20T06:30:52.322Z,98.43
2022-09-20T06:33:26.823Z,100.00
2022-09-20T06:36:24.669Z,100.00
2022-09-20T06:39:28.857Z,100.00
2022-09-20T06:41:56.046Z,100.00
2022-09-20T06:44:22.631Z,99.24
2022-09-20T06:46:49.428Z,97.14
2022-09-20T06:49:15.921Z,100.00
2022-09-20T06:51:43.519Z,99.47
2022-09-20T06:54:18.801Z,98.41
2022-09-20T06:56:47.398Z,98.33
2022-09-20T06:59:15.157Z,96.57
2022-09-20T07:01:42.817Z,98.92
2022-09-20T07:04:09.731Z,99.78
2022-09-20T07:06:36.369Z,99.01
2022-09-20T07:09:04.305Z,97.63
2022-09-20T07:11:32.203Z,96.32
2022-09-20T07:13:59.407Z,96.10
2022-09-20T07:16:26.553Z,95.73
2022-09-20T07:18:53.661Z,94.79
2022-09-20T07:21:21.201Z,93.94
2022-09-20T07:23:51.404Z,96.02
2022-09-20T07:26:19.984Z,96.06
2022-09-20T07:28:46.669Z,93.52
2022-09-20T07:31:13.984Z,93.61
2022-09-20T07:33:40.835Z,93.09
2022-09-20T07:36:07.755Z,93.26
2022-09-20T07:38:34.380Z,91.44
2022-09-20T07:41:02.841Z,93.42
2022-09-20T07:43:30.601Z,93.32
2022-09-20T07:45:59.434Z,92.16
2022-09-20T07:48:29.595Z,92.88
2022-09-20T07:51:08.600Z,93.54
2022-09-20T07:53:36.367Z,93.62
2022-09-20T07:56:05.046Z,93.66
2022-09-20T07:58:34.120Z,93.52
2022-09-20T08:01:09.282Z,93.23
2022-09-20T08:03:36.690Z,91.53
2022-09-20T08:06:08.934Z,92.20
2022-09-20T08:08:37.497Z,92.17
2022-09-20T08:11:06.512Z,90.67
2022-09-20T08:16:32.588Z,90.62
2022-09-20T08:19:01.313Z,90.85
2022-09-20T08:21:31.615Z,90.78
2022-09-20T08:23:59.436Z,88.93
2022-09-20T08:26:28.171Z,89.60
2022-09-20T08:28:57.443Z,89.15
2022-09-20T08:31:26.786Z,86.90
2022-09-20T08:33:54.578Z,86.46
2022-09-20T08:36:24.455Z,85.98
2022-09-20T08:42:02.964Z,84.05
2022-09-20T08:44:47.226Z,84.70
2022-09-20T08:47:25.548Z,84.74
2022-09-20T08:49:57.733Z,86.23
2022-09-20T08:52:37.001Z,85.51
2022-09-20T08:55:27.994Z,85.42
2022-09-20T08:57:57.311Z,82.17
2022-09-20T09:00:31.960Z,83.01
2022-09-20T09:03:03.813Z,81.25
2022-09-20T09:05:39.035Z,83.56
2022-09-20T09:08:16.470Z,85.00
2022-09-20T09:10:54.149Z,84.84
2022-09-20T09:13:47.636Z,83.11
2022-09-20T09:16:23.060Z,84.80
2022-09-20T09:18:53.109Z,82.22
2022-09-20T09:21:23.007Z,80.16
2022-09-20T09:24:14.467Z,80.79
2022-09-20T09:26:43.334Z,78.60
2022-09-20T09:29:23.684Z,83.20
2022-09-20T09:31:56.509Z,83.38
2022-09-20T09:34:30.607Z,82.94
2022-09-20T09:36:58.375Z,80.53
2022-09-20T09:39:33.822Z,77.45
2022-09-20T09:42:01.197Z,83.92
2022-09-20T09:44:30.638Z,83.29
2022-09-20T09:46:57.580Z,78.54
2022-09-20T09:49:36.273Z,82.13
2022-09-20T09:52:14.746Z,74.86
2022-09-20T09:54:42.206Z,82.44
2022-09-20T09:57:11.854Z,77.73
2022-09-20T09:59:49.330Z,80.34
2022-09-20T10:02:49.992Z,76.31
2022-09-20T10:05:21.297Z,78.12
2022-09-20T10:08:22.188Z,71.26
2022-09-20T10:11:13.809Z,77.79
2022-09-20T10:14:07.691Z,77.04
2022-09-20T10:17:12.276Z,73.89
2022-09-20T10:19:51.251Z,78.62
2022-09-20T10:23:07.086Z,75.75
2022-09-20T10:26:22.781Z,73.53
2022-09-20T10:29:27.009Z,78.36
2022-09-20T10:32:05.925Z,77.40
2022-09-20T10:35:07.351Z,76.73
2022-09-20T10:37:54.138Z,78.85
2022-09-20T10:41:08.334Z,75.46
2022-09-20T10:43:41.885Z,76.78
2022-09-20T10:46:31.787Z,79.00
2022-09-20T10:49:26.772Z,76.64
2022-09-20T10:52:07.487Z,77.05
2022-09-20T10:55:03.664Z,73.55
2022-09-20T10:57:58.630Z,75.66
2022-09-20T11:00:46.807Z,69.99
2022-09-20T11:03:33.192Z,68.08
2022-09-20T11:06:44.164Z,72.20
2022-09-20T11:09:17.467Z,74.16
2022-09-20T12:04:57.682Z,79.35
2022-09-20T12:07:28.911Z,74.97
2022-09-20T12:10:00.603Z,79.11
2022-09-20T12:12:39.018Z,73.96
2022-09-20T12:15:22.124Z,77.59
2022-09-20T12:17:49.656Z,73.03
2022-09-20T12:20:34.863Z,78.26
2022-09-20T12:23:38.556Z,76.75
2022-09-20T12:26:06.302Z,74.64
2022-09-20T12:28:45.187Z,74.70
2022-09-20T12:31:31.840Z,72.69
2022-09-20T12:34:10.769Z,76.40
2022-09-20T12:36:38.722Z,76.21
2022-09-20T12:39:22.402Z,75.25
2022-09-20T12:41:59.777Z,76.28
2022-09-20T12:44:43.089Z,72.47
2022-09-20T12:47:12.563Z,78.39
2022-09-20T12:50:07.830Z,72.28
2022-09-20T12:52:58.668Z,74.92
2022-09-20T12:55:46.007Z,76.30
2022-09-20T12:58:15.474Z,74.23
2022-09-20T13:00:57.463Z,71.35
2022-09-20T13:03:36.461Z,73.33
2022-09-20T13:06:06.609Z,73.99
2022-09-20T13:08:42.893Z,73.44
2022-09-20T13:11:19.163Z,75.79
2022-09-20T13:13:50.561Z,77.33
2022-09-20T13:16:30.818Z,75.88
2022-09-20T13:19:22.972Z,70.95
2022-09-20T13:22:21.035Z,72.55
2022-09-20T13:24:50.416Z,74.16
2022-09-20T13:27:22.776Z,69.59
2022-09-20T13:29:51.060Z,72.28
2022-09-20T13:32:18.751Z,73.21
2022-09-20T13:34:48.375Z,67.73
2022-09-20T13:37:23.682Z,70.72
2022-09-20T13:39:55.154Z,71.22
2022-09-20T13:42:22.132Z,75.77
2022-09-20T13:44:49.450Z,77.24
2022-09-20T13:47:28.996Z,76.45
2022-09-20T13:50:16.974Z,69.57
2022-09-20T13:52:49.415Z,74.30
2022-09-20T13:55:21.872Z,71.80
2022-09-20T13:57:48.570Z,73.88
2022-09-20T14:00:16.153Z,71.42
2022-09-20T14:02:42.834Z,74.31
2022-09-20T14:05:18.648Z,70.66
2022-09-20T14:07:47.271Z,74.32
2022-09-20T14:10:34.450Z,68.09
2022-09-20T14:13:06.805Z,70.42
2022-09-20T14:15:44.399Z,72.19
2022-09-20T14:18:19.958Z,74.07
2022-09-20T14:20:46.958Z,73.67
2022-09-20T14:23:25.612Z,68.16
2022-09-20T14:26:17.014Z,72.76
2022-09-20T14:28:44.684Z,74.44
2022-09-20T14:31:21.523Z,76.53
2022-09-20T14:33:54.916Z,76.70
2022-09-20T14:36:25.119Z,69.00
2022-09-20T14:38:55.633Z,74.38
2022-09-20T14:41:39.072Z,74.81
2022-09-20T14:44:17.382Z,74.43
2022-09-20T14:46:44.406Z,74.37
2022-09-20T14:49:20.589Z,74.08
2022-09-20T14:51:48.650Z,75.46
2022-09-20T14:54:25.698Z,73.56
2022-09-20T14:56:54.772Z,73.27
2022-09-20T14:59:36.485Z,73.07
2022-09-20T15:02:12.346Z,70.40
2022-09-20T15:04:40.646Z,73.92
2022-09-20T15:07:11.822Z,74.16
2022-09-20T15:09:38.646Z,74.10
2022-09-20T15:12:19.276Z,71.91
2022-09-20T15:14:46.667Z,70.66
2022-09-20T15:17:19.600Z,73.67
2022-09-20T15:19:47.773Z,74.48
2022-09-20T15:22:15.070Z,74.05
2022-09-20T15:24:42.155Z,75.10
2022-09-20T15:27:11.933Z,72.10
2022-09-20T15:29:38.525Z,71.58
2022-09-20T15:32:05.952Z,71.01
2022-09-20T15:34:32.782Z,71.62
2022-09-20T15:36:59.601Z,72.19
2022-09-20T15:39:26.162Z,74.59
2022-09-20T15:41:53.321Z,74.99
2022-09-20T15:44:20.419Z,73.91
2022-09-20T15:47:15.420Z,74.03
2022-09-20T15:49:49.073Z,74.25
2022-09-20T15:52:16.323Z,75.49
2022-09-20T15:54:43.448Z,76.11
2022-09-20T15:57:09.951Z,75.18
2022-09-20T15:59:36.497Z,75.13
2022-09-20T16:02:03.353Z,75.30
2022-09-20T16:04:30.068Z,75.07
2022-09-20T16:06:56.718Z,75.74
2022-09-20T16:09:23.327Z,75.89
2022-09-20T16:11:49.861Z,75.86
2022-09-20T16:14:16.492Z,76.53
2022-09-20T16:16:43.266Z,75.55
2022-09-20T16:19:23.943Z,74.79
2022-09-20T16:21:58.967Z,75.18
2022-09-20T16:24:28.423Z,77.00
2022-09-20T16:26:55.258Z,76.25
2022-09-20T16:29:22.425Z,77.13
2022-09-20T16:31:54.050Z,77.81
2022-09-20T16:34:30.641Z,77.25
2022-09-20T16:37:01.139Z,76.31
2022-09-20T16:39:29.363Z,77.43
2022-09-20T16:42:04.880Z,77.37
2022-09-20T16:44:33.364Z,78.24
2022-09-20T16:46:59.977Z,78.04
2022-09-20T16:49:27.928Z,78.23
2022-09-20T16:51:54.681Z,78.43
2022-09-20T16:54:21.577Z,78.16
2022-09-20T16:56:50.735Z,77.83
2022-09-20T16:59:21.420Z,78.45
2022-09-20T17:01:49.038Z,79.19
2022-09-20T17:04:18.338Z,79.59
2022-09-20T17:06:45.815Z,79.21
2022-09-20T17:09:13.857Z,79.22
2022-09-20T17:11:44.650Z,79.22
2022-09-20T17:14:12.238Z,79.86
2022-09-20T17:16:40.562Z,80.09
2022-09-20T17:19:12.825Z,80.52
2022-09-20T17:21:43.812Z,80.47
2022-09-20T17:24:11.017Z,80.20
2022-09-20T17:26:40.929Z,81.03
2022-09-20T17:29:10.343Z,81.10
2022-09-20T17:31:39.719Z,81.47
2022-09-20T17:34:09.553Z,82.19
2022-09-20T17:36:42.663Z,82.78
2022-09-20T17:39:12.267Z,82.63
2022-09-20T17:41:40.936Z,83.83
2022-09-20T17:44:10.010Z,82.89
2022-09-20T17:46:39.360Z,84.31
2022-09-20T17:49:12.528Z,84.89
2022-09-20T17:51:45.266Z,84.25
2022-09-20T17:54:14.011Z,85.41
2022-09-20T17:56:43.545Z,85.10
2022-09-20T17:59:11.850Z,83.77
2022-09-20T18:01:40.504Z,85.56
2022-09-20T18:04:08.696Z,86.48
2022-09-20T18:06:35.548Z,85.30
2022-09-20T18:09:05.399Z,85.34
2022-09-20T18:11:38.176Z,86.41
2022-09-20T18:14:07.837Z,85.90
2022-09-20T18:16:35.211Z,85.73
2022-09-20T18:19:01.979Z,86.72
2022-09-20T18:21:31.125Z,85.64
2022-09-20T18:23:58.163Z,86.58
2022-09-20T18:26:27.690Z,86.85
2022-09-20T18:28:57.053Z,87.62
2022-09-20T18:31:27.161Z,87.80
2022-09-20T18:33:55.489Z,89.36
2022-09-20T18:36:25.677Z,89.96
2022-09-20T18:38:54.973Z,88.65
2022-09-20T18:41:25.482Z,87.91
2022-09-20T18:43:53.757Z,88.26
2022-09-20T18:46:23.721Z,89.47
2022-09-20T18:48:54.855Z,90.23
2022-09-20T18:51:22.347Z,89.93
2022-09-20T18:53:48.979Z,90.83
2022-09-20T18:56:22.647Z,88.48
2022-09-20T18:58:54.676Z,89.68
2022-09-20T19:01:49.567Z,92.40
2022-09-20T19:04:44.002Z,91.34
2022-09-20T19:07:13.703Z,91.81
2022-09-20T19:10:22.486Z,93.64
2022-09-20T19:13:04.601Z,91.10
2022-09-20T19:15:45.621Z,91.06
2022-09-20T19:18:35.479Z,94.29
2022-09-20T19:21:14.270Z,92.91
2022-09-20T19:24:08.238Z,91.57
2022-09-20T19:26:38.728Z,89.76
2022-09-20T19:29:20.050Z,90.80
2022-09-20T19:31:52.155Z,92.85
2022-09-20T19:34:27.180Z,93.39
2022-09-20T19:37:18.837Z,91.23
2022-09-20T19:39:51.600Z,91.88
2022-09-20T19:42:44.027Z,90.63
2022-09-20T19:45:22.127Z,94.41
2022-09-20T19:48:07.533Z,90.39
2022-09-20T19:50:48.796Z,91.74
2022-09-20T19:53:22.416Z,92.07
2022-09-20T19:56:24.773Z,90.68
2022-09-20T19:58:55.069Z,89.92
2022-09-20T20:01:26.150Z,89.21
2022-09-20T20:03:54.126Z,89.76
2022-09-20T20:06:30.556Z,89.61
2022-09-20T20:09:21.681Z,92.58
2022-09-20T20:12:25.709Z,94.34
2022-09-20T20:15:10.906Z,95.87
2022-09-20T20:18:31.704Z,93.82
2022-09-20T20:20:59.166Z,90.14
2022-09-20T20:24:09.060Z,90.06
2022-09-20T20:26:36.011Z,88.92
2022-09-20T20:29:02.598Z,87.50
2022-09-20T20:31:30.316Z,94.52
2022-09-20T20:33:57.263Z,95.88
2022-09-20T20:36:23.811Z,99.00
2022-09-20T20:38:52.672Z,98.57
2022-09-20T20:41:21.466Z,95.88
2022-09-20T20:43:52.020Z,96.99
2022-09-20T20:46:19.781Z,98.40
2022-09-20T20:48:47.860Z,98.66
2022-09-20T20:51:19.800Z,97.42
2022-09-20T20:53:49.130Z,96.62
2022-09-20T20:56:27.750Z,91.98
2022-09-20T20:59:00.895Z,91.70
2022-09-20T21:01:43.515Z,95.72
2022-09-20T21:04:11.402Z,92.25
2022-09-20T21:06:40.740Z,90.31
2022-09-20T21:09:11.464Z,95.57
2022-09-20T21:11:43.199Z,99.79
2022-09-20T21:14:10.707Z,96.39
2022-09-20T21:16:40.867Z,94.50
2022-09-20T21:19:09.488Z,98.52
2022-09-20T21:21:42.678Z,97.17
2022-09-20T21:24:12.221Z,97.40
2022-09-20T21:26:40.326Z,98.15
2022-09-20T21:29:09.974Z,97.54
2022-09-20T21:31:38.717Z,99.50
2022-09-20T21:34:06.847Z,95.89
2022-09-20T21:36:34.286Z,93.85
2022-09-20T21:39:01.062Z,95.23
2022-09-20T21:41:30.425Z,92.19
2022-09-20T21:44:00.179Z,92.03
2022-09-20T21:46:40.439Z,98.20
2022-09-20T21:49:11.781Z,96.41
2022-09-20T21:51:41.407Z,98.65
2022-09-20T21:54:09.065Z,93.44
2022-09-20T21:56:37.210Z,99.16
2022-09-20T21:59:06.400Z,97.02
2022-09-20T22:01:35.922Z,98.63
2022-09-20T22:04:10.945Z,95.69
2022-09-20T22:06:46.313Z,94.49
2022-09-20T22:09:15.553Z,93.89
2022-09-20T22:11:44.964Z,92.09
2022-09-20T22:14:13.530Z,96.13
2022-09-20T22:16:41.909Z,97.39
2022-09-20T22:19:10.386Z,96.97
2022-09-20T22:21:40.010Z,95.16
2022-09-20T22:24:12.054Z,98.36
2022-09-20T22:26:48.305Z,99.13
2022-09-20T22:29:15.180Z,94.59
2022-09-20T22:31:47.480Z,96.75
2022-09-20T22:34:17.077Z,99.52
2022-09-20T22:36:44.622Z,97.30
2022-09-20T22:39:12.633Z,98.68
2022-09-20T22:41:41.416Z,100.00
2022-09-20T22:44:08.533Z,100.00
2022-09-20T22:46:35.813Z,100.00
2022-09-20T22:49:05.900Z,97.00
2022-09-20T22:51:33.644Z,98.14
2022-09-20T22:54:04.723Z,95.20
2022-09-20T22:56:31.794Z,93.14
2022-09-20T22:59:02.974Z,94.11
2022-09-20T23:01:31.868Z,94.93
2022-09-20T23:04:01.087Z,95.16
2022-09-20T23:06:30.846Z,94.59
2022-09-20T23:09:00.516Z,98.09
2022-09-20T23:11:28.663Z,96.90
2022-09-20T23:14:00.971Z,94.69
2022-09-20T23:16:30.521Z,93.32
2022-09-20T23:18:59.583Z,93.94
2022-09-20T23:21:27.212Z,93.40
2022-09-20T23:23:56.139Z,96.29
2022-09-20T23:26:23.531Z,95.57
2022-09-20T23:28:56.810Z,99.25
2022-09-20T23:31:24.421Z,97.36
2022-09-20T23:33:57.002Z,97.28
2022-09-20T23:36:25.283Z,93.09
2022-09-20T23:38:52.024Z,94.22
2022-09-20T23:41:23.221Z,93.12
2022-09-20T23:43:50.055Z,95.65
2022-09-20T23:46:18.404Z,98.22
2022-09-20T23:48:45.530Z,100.00
2022-09-20T23:51:17.248Z,95.72
2022-09-20T23:53:44.565Z,100.00
2022-09-20T23:56:12.604Z,99.10
2022-09-20T23:58:42.077Z,97.92
